Home   Weather   India   Qadian   Past weeks
Flag for India

Past Weather in Qadian, Punjab, India — Yesterday and Last 2 Weeks

Currently: 59 °F. Haze. (Weather station: Amritsar Airport, India). See more current weather

Past Weather in Qadian — Graph

°F

Qadian Temperature Yesterday

Maximum temperature yesterday: 72 °F (at 1:30 pm)
Minimum temperature yesterday: 46 °F (at 5:00 am)
Average temperature yesterday: 58 °F

High & Low Weather Summary for the Past Weeks

 TemperatureHumidityPressure
High77 °F (Feb 15, 3:00 pm)100% (Feb 10, 3:30 am)30.24 "Hg (Feb 10, 3:30 am)
Low39 °F (Feb 12, 6:30 am)36% (Feb 23, 4:00 pm)29.68 "Hg (Feb 19, 4:00 pm)
Average60 °F82%30.02 "Hg
* Reported Feb 9 7:30 pm — Feb 24 8:00 pm, Qadian. Weather by CustomWeather, © 2024

Note: Actual official high and low records may vary slightly from our data, if they occured in-between our weather recording intervals... More about our weather records

Qadian Weather History for the Previous 24 Hours

Scroll right to see more
 ConditionsComfort  
Time TempWeatherWind HumidityBarometerVisibility
8:00 pm
Sat, Feb 24
61 °FHaze.No wind68%30.07 "Hg3 mi
7:30 pm61 °FHaze.No wind63%30.04 "Hg3 mi
7:00 pm64 °FHaze.No wind60%30.04 "Hg3 mi
6:30 pm64 °FPassing clouds.No wind56%30.04 "Hg4 mi
6:00 pm68 °FPassing clouds.2 mph53%30.01 "Hg4 mi
5:30 pm70 °FPassing clouds.5 mph43%30.01 "Hg4 mi
5:00 pm70 °FClear.6 mph43%30.01 "Hg4 mi
4:30 pm70 °FClear.5 mph46%30.01 "Hg4 mi
4:00 pm70 °FClear.5 mph46%30.01 "Hg4 mi
3:30 pm72 °FClear.5 mph44%30.01 "Hg4 mi
3:00 pm72 °FClear.5 mph47%30.01 "Hg4 mi
2:30 pm72 °FClear.6 mph44%30.04 "Hg4 mi
2:00 pm70 °FPassing clouds.5 mph53%30.04 "Hg4 mi
1:30 pm70 °FPassing clouds.5 mph57%30.04 "Hg4 mi
1:00 pm70 °FPassing clouds.5 mph50%30.07 "Hg4 mi
12:30 pm70 °FPassing clouds.2 mph50%30.07 "Hg4 mi
12:00 pm66 °FPassing clouds.3 mph60%30.07 "Hg4 mi
11:30 am66 °FPassing clouds.3 mph64%30.09 "Hg4 mi
11:00 am64 °FClear.6 mph68%30.09 "Hg4 mi
10:00 am63 °FClear.2 mph68%30.07 "Hg4 mi
9:30 am61 °FFog.3 mph77%30.07 "Hg3 mi
8:30 am52 °FFog.2 mph94%30.04 "Hg2 mi
8:00 am48 °FFog.No wind94%30.04 "Hg2 mi
7:00 am46 °FFog.6 mph93%30.01 "Hg2 mi
6:30 am48 °FFog.No wind94%29.98 "Hg2 mi
5:00 am48 °FFog.2 mph94%29.98 "Hg2 mi
4:30 am48 °FFog.2 mph94%29.98 "Hg2 mi
4:00 am46 °FFog.No wind93%29.98 "Hg2 mi
3:00 am48 °FFog.2 mph94%30.01 "Hg2 mi
2:30 am48 °FFog.2 mph94%30.01 "Hg2 mi
2:00 am50 °FFog.2 mph88%30.01 "Hg2 mi
1:30 am52 °FFog.5 mph88%30.04 "Hg3 mi
1:00 am52 °FFog.6 mph88%30.01 "Hg3 mi
12:30 am52 °FFog.9 mph88%30.01 "Hg3 mi
12:00 am52 °FFog.7 mph88%30.01 "Hg3 mi
11:30 pm
Fri, Feb 23
54 °FFog.2 mph88%30.01 "Hg3 mi
11:00 pm54 °FFog.2 mph88%30.04 "Hg3 mi
10:30 pm54 °FFog.3 mph88%30.04 "Hg3 mi
10:00 pm54 °FFog.5 mph88%30.04 "Hg3 mi
9:30 pm55 °FFog.12 mph82%30.04 "Hg3 mi
9:00 pm55 °FFog.12 mph82%30.04 "Hg3 mi
Weather by CustomWeather, © 2024

See weather overview